Time;durP1;ratioP1;P1;durP2;ratioP2;P2;SDS_P1;SDS_P2;PMS_P1;PMS_P2;Temp;Humidity;BMP_temperature;BMP_pressure;BME280_temperature;BME280_humidity;BME280_pressure;Samples;Min_cycle;Max_cycle;Signal;HPM_P1;HPM_P2
2022/01/22 00:01:57;;;;;;;;;;;20.30;42.50;;;;;;5131751;27;20403;-48
2022/01/22 00:04:24;;;;;;;;;;;20.30;42.50;;;;;;5113266;27;19986;-45
2022/01/22 00:06:52;;;;;;;;;;;20.30;42.50;;;;;;5111055;27;19952;-48
2022/01/22 00:09:24;;;;;;;;;;;20.30;42.50;;;;;;5110789;28;19983;-48
2022/01/22 00:11:53;;;;;;;;;;;20.30;42.50;;;;;;5124974;27;19934;-44
2022/01/22 00:14:26;;;;;;;;;;;20.30;42.50;;;;;;5117895;28;20014;-45
2022/01/22 00:16:54;;;;;;;;;;;20.30;42.50;;;;;;5121886;28;19931;-45
2022/01/22 00:19:21;;;;;;;;;;;20.30;42.50;;;;;;5113746;28;20296;-43
2022/01/22 00:21:48;;;;;;;;;;;20.30;42.50;;;;;;5124432;27;19976;-45
2022/01/22 00:24:16;;;;;;;;;;;20.30;42.50;;;;;;5152084;27;19931;-45
2022/01/22 00:26:43;;;;;;;;;;;20.30;42.50;;;;;;5107980;28;19924;-49
2022/01/22 00:29:10;;;;;;;;;;;20.30;42.50;;;;;;5102146;28;20029;-46
2022/01/22 00:31:36;;;;;;;;;;;20.30;42.50;;;;;;5112997;27;20007;-45
2022/01/22 00:34:04;;;;;;;;;;;20.30;42.50;;;;;;5125133;28;20020;-48
2022/01/22 00:36:31;;;;;;;;;;;20.30;42.50;;;;;;5113906;28;19927;-48
2022/01/22 00:38:58;;;;;;;;;;;20.30;42.50;;;;;;5101100;28;19965;-47
2022/01/22 00:41:25;;;;;;;;;;;20.30;42.50;;;;;;5132914;27;19927;-47
2022/01/22 00:43:51;;;;;;;;;;;20.30;42.60;;;;;;5152993;27;20312;-44
2022/01/22 00:46:20;;;;;;;;;;;20.20;42.50;;;;;;5114655;27;19949;-46
2022/01/22 00:48:47;;;;;;;;;;;20.30;42.50;;;;;;5129955;28;20022;-45
2022/01/22 00:51:15;;;;;;;;;;;20.20;42.50;;;;;;5119072;27;20329;-46
2022/01/22 00:53:42;;;;;;;;;;;20.30;42.50;;;;;;5110135;28;19939;-48
2022/01/22 00:56:09;;;;;;;;;;;20.20;42.50;;;;;;5107257;27;19928;-44
2022/01/22 00:58:35;;;;;;;;;;;20.20;42.50;;;;;;5118303;28;19927;-47
2022/01/22 01:01:02;;;;;;;;;;;20.20;42.50;;;;;;5103060;28;19930;-46
2022/01/22 01:03:32;;;;;;;;;;;20.20;42.50;;;;;;5108794;27;19927;-46
2022/01/22 01:05:59;;;;;;;;;;;20.20;42.50;;;;;;5102661;28;19931;-48
2022/01/22 01:08:28;;;;;;;;;;;20.20;42.50;;;;;;5148499;27;19973;-46
2022/01/22 01:10:55;;;;;;;;;;;20.20;42.50;;;;;;5117337;27;19935;-45
2022/01/22 01:13:22;;;;;;;;;;;20.30;42.60;;;;;;5123519;27;19987;-47
2022/01/22 01:15:59;;;;;;;;;;;20.20;42.50;;;;;;5117071;27;19998;-46
2022/01/22 01:32:19;;;;;;;;;;;20.20;42.50;;;;;;5134747;27;19934;-43
2022/01/22 01:34:48;;;;;;;;;;;20.20;42.60;;;;;;5155405;27;20017;-48
2022/01/22 01:37:15;;;;;;;;;;;20.20;42.60;;;;;;5112700;27;19928;-44
2022/01/22 01:39:45;;;;;;;;;;;20.20;42.60;;;;;;5108277;27;19923;-45
2022/01/22 01:42:15;;;;;;;;;;;20.20;42.60;;;;;;5096231;27;19924;-48
2022/01/22 01:44:42;;;;;;;;;;;20.20;42.60;;;;;;5145588;27;19934;-44
2022/01/22 01:47:10;;;;;;;;;;;20.20;42.60;;;;;;5116378;27;19927;-47
2022/01/22 01:49:37;;;;;;;;;;;20.20;42.60;;;;;;5094486;28;19963;-45
2022/01/22 01:52:07;;;;;;;;;;;20.20;42.60;;;;;;5113885;27;19939;-48
2022/01/22 01:54:44;;;;;;;;;;;20.20;42.60;;;;;;5113974;27;19928;-45
2022/01/22 01:57:31;;;;;;;;;;;20.20;42.60;;;;;;5114229;27;19927;-48
2022/01/22 01:59:57;;;;;;;;;;;20.20;42.60;;;;;;5096889;28;19924;-44
2022/01/22 02:02:26;;;;;;;;;;;20.20;42.60;;;;;;5100972;27;19934;-46
2022/01/22 02:04:52;;;;;;;;;;;20.20;42.60;;;;;;5133028;27;20369;-44
2022/01/22 02:07:19;;;;;;;;;;;20.20;42.60;;;;;;5148157;27;19945;-44
2022/01/22 02:09:46;;;;;;;;;;;20.20;42.60;;;;;;5142131;27;19928;-48
2022/01/22 02:12:20;;;;;;;;;;;20.20;42.60;;;;;;5096537;28;19924;-45
2022/01/22 02:25:45;;;;;;;;;;;20.20;42.60;;;;;;5108934;27;19939;-46
2022/01/22 02:28:15;;;;;;;;;;;20.20;42.60;;;;;;5113583;27;20324;-48
2022/01/22 02:30:47;;;;;;;;;;;20.20;42.60;;;;;;5104081;27;19978;-47
2022/01/22 02:33:20;;;;;;;;;;;20.20;42.60;;;;;;5095751;27;19923;-43
2022/01/22 02:35:51;;;;;;;;;;;20.20;42.60;;;;;;5152926;27;19930;-46
2022/01/22 02:38:26;;;;;;;;;;;20.20;42.60;;;;;;5116321;27;19979;-48
2022/01/22 02:40:53;;;;;;;;;;;20.20;42.60;;;;;;5120713;27;20427;-47
2022/01/22 02:43:20;;;;;;;;;;;20.20;42.60;;;;;;5095109;27;19924;-45
2022/01/22 02:45:48;;;;;;;;;;;20.20;42.60;;;;;;5129688;27;19923;-46
2022/01/22 02:48:15;;;;;;;;;;;20.20;42.60;;;;;;5110673;28;19924;-48
2022/01/22 02:50:42;;;;;;;;;;;20.20;42.60;;;;;;5146464;27;19955;-45
2022/01/22 02:53:09;;;;;;;;;;;20.20;42.60;;;;;;5112932;27;19930;-50
2022/01/22 02:55:38;;;;;;;;;;;20.20;42.60;;;;;;5128306;27;19928;-43
2022/01/22 02:58:04;;;;;;;;;;;20.20;42.60;;;;;;5121300;27;19991;-48
2022/01/22 03:00:32;;;;;;;;;;;20.20;42.60;;;;;;5115793;27;20019;-49
2022/01/22 03:02:59;;;;;;;;;;;20.20;42.60;;;;;;5117557;27;19927;-47
2022/01/22 03:05:26;;;;;;;;;;;20.20;42.60;;;;;;5118324;27;19942;-51
2022/01/22 03:07:55;;;;;;;;;;;20.20;42.60;;;;;;5114279;27;19954;-43
2022/01/22 03:10:24;;;;;;;;;;;20.20;42.60;;;;;;5122077;27;19948;-46
2022/01/22 03:13:14;;;;;;;;;;;20.20;42.60;;;;;;5118423;27;19927;-45
2022/01/22 03:15:58;;;;;;;;;;;20.20;42.60;;;;;;5123272;27;19980;-46
2022/01/22 03:18:38;;;;;;;;;;;20.20;42.60;;;;;;5113005;27;20082;-47
2022/01/22 03:21:12;;;;;;;;;;;20.20;42.60;;;;;;5122065;27;19980;-47
2022/01/22 03:29:20;;;;;;;;;;;20.10;42.50;;;;;;5071218;27;19923;-49
2022/01/22 03:31:46;;;;;;;;;;;20.20;42.60;;;;;;5102602;27;19924;-47
2022/01/22 03:34:14;;;;;;;;;;;20.20;42.60;;;;;;5092713;28;19971;-45
2022/01/22 03:36:40;;;;;;;;;;;20.20;42.60;;;;;;5140732;27;20010;-46
2022/01/22 03:39:07;;;;;;;;;;;20.20;42.60;;;;;;5108969;27;19956;-45
2022/01/22 03:41:35;;;;;;;;;;;20.10;42.50;;;;;;5136046;27;20378;-50
2022/01/22 03:44:02;;;;;;;;;;;20.20;42.60;;;;;;5094898;27;19927;-47
2022/01/22 03:46:31;;;;;;;;;;;20.10;42.50;;;;;;5108213;27;19924;-49
2022/01/22 03:48:57;;;;;;;;;;;20.10;42.50;;;;;;5112260;27;19928;-48
2022/01/22 03:51:24;;;;;;;;;;;20.20;42.60;;;;;;5113558;27;19970;-49
2022/01/22 03:53:51;;;;;;;;;;;20.10;42.50;;;;;;5112736;27;19927;-49
2022/01/22 03:56:18;;;;;;;;;;;20.10;42.50;;;;;;5127950;27;19923;-45
2022/01/22 03:58:45;;;;;;;;;;;20.10;42.50;;;;;;5107144;28;19923;-46
2022/01/22 04:04:15;;;;;;;;;;;20.20;42.60;;;;;;5107386;27;19930;-47
2022/01/22 04:09:44;;;;;;;;;;;20.20;42.60;;;;;;5110031;28;19967;-49
2022/01/22 04:12:12;;;;;;;;;;;20.20;42.60;;;;;;5143631;27;19927;-49
2022/01/22 04:14:46;;;;;;;;;;;20.10;42.50;;;;;;5131392;27;19923;-44
2022/01/22 04:17:24;;;;;;;;;;;20.20;42.60;;;;;;5112230;28;19923;-47
2022/01/22 04:25:24;;;;;;;;;;;20.20;42.60;;;;;;5112797;28;19924;-44
2022/01/22 04:27:51;;;;;;;;;;;20.10;42.50;;;;;;5124403;27;20284;-47
2022/01/22 04:30:18;;;;;;;;;;;20.20;42.60;;;;;;5129631;28;19923;-46
2022/01/22 04:32:45;;;;;;;;;;;20.10;42.50;;;;;;5116447;28;19958;-45
2022/01/22 04:35:13;;;;;;;;;;;20.10;42.50;;;;;;5117250;28;19963;-49
2022/01/22 04:37:40;;;;;;;;;;;20.10;42.50;;;;;;5116370;27;19927;-44
2022/01/22 04:40:07;;;;;;;;;;;20.20;42.60;;;;;;5114120;27;20038;-46
2022/01/22 04:42:37;;;;;;;;;;;20.10;42.50;;;;;;5125205;27;19931;-48
2022/01/22 04:45:11;;;;;;;;;;;20.10;42.50;;;;;;5115689;28;19924;-50
2022/01/22 04:47:47;;;;;;;;;;;20.20;42.60;;;;;;5109928;27;19931;-47
2022/01/22 04:55:44;;;;;;;;;;;20.10;42.50;;;;;;5129317;27;19931;-45
2022/01/22 04:58:10;;;;;;;;;;;20.10;42.50;;;;;;5105704;28;19930;-44
2022/01/22 05:00:38;;;;;;;;;;;20.10;42.50;;;;;;5113412;27;20372;-47
2022/01/22 05:03:05;;;;;;;;;;;20.10;42.50;;;;;;5131674;27;20050;-43
2022/01/22 05:05:33;;;;;;;;;;;20.10;42.50;;;;;;5117749;27;19967;-47
2022/01/22 05:08:00;;;;;;;;;;;20.10;42.50;;;;;;5124207;27;19944;-47
2022/01/22 05:10:27;;;;;;;;;;;20.10;42.50;;;;;;5124173;27;19923;-43
2022/01/22 05:12:54;;;;;;;;;;;20.10;42.50;;;;;;5124228;27;20361;-45
2022/01/22 05:15:21;;;;;;;;;;;20.10;42.50;;;;;;5119514;27;19934;-44
2022/01/22 05:17:48;;;;;;;;;;;20.10;42.50;;;;;;5108001;27;19924;-45
2022/01/22 05:20:16;;;;;;;;;;;20.10;42.50;;;;;;5094904;28;19919;-46
2022/01/22 05:22:54;;;;;;;;;;;20.10;42.40;;;;;;5140824;27;19950;-47
2022/01/22 05:25:26;;;;;;;;;;;20.10;42.50;;;;;;5128709;27;19985;-45
2022/01/22 05:30:56;;;;;;;;;;;20.10;42.50;;;;;;5097750;28;19931;-43
2022/01/22 05:39:03;;;;;;;;;;;20.10;42.40;;;;;;5139410;27;20039;-46
2022/01/22 05:41:30;;;;;;;;;;;20.10;42.50;;;;;;5096961;28;19930;-44
2022/01/22 05:43:57;;;;;;;;;;;20.10;42.40;;;;;;5124335;27;20376;-44
2022/01/22 05:46:23;;;;;;;;;;;20.10;42.40;;;;;;5128493;27;19927;-45
2022/01/22 05:48:50;;;;;;;;;;;20.10;42.40;;;;;;5115087;27;19946;-45
2022/01/22 05:51:17;;;;;;;;;;;20.10;42.50;;;;;;5093382;28;20100;-46
2022/01/22 05:54:00;;;;;;;;;;;20.10;42.50;;;;;;5122292;27;19970;-46
2022/01/22 06:01:57;;;;;;;;;;;20.10;42.50;;;;;;5125927;27;19931;-44
2022/01/22 06:04:24;;;;;;;;;;;20.10;42.50;;;;;;5113715;27;19931;-46
2022/01/22 06:06:50;;;;;;;;;;;20.10;42.40;;;;;;5111405;27;19928;-44
2022/01/22 06:09:17;;;;;;;;;;;20.10;42.40;;;;;;5164319;27;20367;-44
2022/01/22 06:11:55;;;;;;;;;;;20.10;42.40;;;;;;5128473;27;20364;-47
2022/01/22 06:14:22;;;;;;;;;;;20.10;42.40;;;;;;5124920;27;19935;-46
2022/01/22 06:16:48;;;;;;;;;;;20.10;42.40;;;;;;5123002;27;19924;-48
2022/01/22 06:19:15;;;;;;;;;;;20.10;42.40;;;;;;5101938;27;19960;-44
2022/01/22 06:21:42;;;;;;;;;;;20.10;42.50;;;;;;5129169;27;19935;-48
2022/01/22 06:24:11;;;;;;;;;;;20.10;42.40;;;;;;5125290;27;19927;-45
2022/01/22 06:26:38;;;;;;;;;;;20.10;42.40;;;;;;5125387;27;19949;-47
2022/01/22 06:29:06;;;;;;;;;;;20.10;42.40;;;;;;5119109;27;19927;-44
2022/01/22 06:31:33;;;;;;;;;;;20.10;42.40;;;;;;5127611;27;20561;-43
2022/01/22 06:33:59;;;;;;;;;;;20.10;42.40;;;;;;5120808;27;19968;-46
2022/01/22 06:36:26;;;;;;;;;;;20.10;42.40;;;;;;5114082;27;19962;-45
2022/01/22 06:38:58;;;;;;;;;;;20.10;42.40;;;;;;5129979;27;19980;-46
2022/01/22 06:44:11;;;;;;;;;;;20.10;42.40;;;;;;5109509;27;19934;-45
2022/01/22 06:46:38;;;;;;;;;;;20.10;42.40;;;;;;5130012;27;19927;-46
2022/01/22 06:49:04;;;;;;;;;;;20.10;42.50;;;;;;5113192;27;19927;-44
2022/01/22 06:51:33;;;;;;;;;;;20.10;42.40;;;;;;5112760;27;19951;-47
2022/01/22 06:54:00;;;;;;;;;;;20.10;42.40;;;;;;5113741;27;19923;-47
2022/01/22 06:56:29;;;;;;;;;;;20.10;42.40;;;;;;5110824;27;19996;-45
2022/01/22 06:58:56;;;;;;;;;;;20.10;42.40;;;;;;5107007;27;20569;-51
2022/01/22 07:01:24;;;;;;;;;;;20.10;42.40;;;;;;5106809;27;20000;-50
2022/01/22 07:03:51;;;;;;;;;;;20.10;42.40;;;;;;5110612;27;20034;-45
2022/01/22 07:06:18;;;;;;;;;;;20.10;42.40;;;;;;5110567;27;20320;-48
2022/01/22 07:08:45;;;;;;;;;;;20.10;42.40;;;;;;5108371;27;19945;-46
2022/01/22 07:11:11;;;;;;;;;;;20.10;42.40;;;;;;5108434;27;19931;-48
2022/01/22 07:13:38;;;;;;;;;;;20.10;42.40;;;;;;5128268;27;20012;-47
2022/01/22 07:16:05;;;;;;;;;;;20.10;42.40;;;;;;5111166;27;19954;-47
2022/01/22 07:18:34;;;;;;;;;;;20.10;42.50;;;;;;5111447;27;20007;-48
2022/01/22 07:21:08;;;;;;;;;;;20.10;42.40;;;;;;5109359;27;20034;-47
2022/01/22 07:24:06;;;;;;;;;;;20.10;42.40;;;;;;5111098;27;19966;-44
2022/01/22 07:26:30;;;;;;;;;;;20.10;42.40;;;;;;5110041;27;19923;-48
2022/01/22 07:28:57;;;;;;;;;;;20.10;42.40;;;;;;5106694;27;19961;-48
2022/01/22 07:31:26;;;;;;;;;;;20.10;42.40;;;;;;5129300;27;20450;-45
2022/01/22 07:33:54;;;;;;;;;;;20.10;42.40;;;;;;5110882;27;20363;-45
2022/01/22 07:36:21;;;;;;;;;;;20.10;42.40;;;;;;5110181;27;19959;-48
2022/01/22 07:38:47;;;;;;;;;;;20.10;42.40;;;;;;5107817;27;19923;-46
2022/01/22 07:41:14;;;;;;;;;;;20.10;42.40;;;;;;5110473;27;19930;-47
2022/01/22 07:43:41;;;;;;;;;;;20.10;42.40;;;;;;5112405;27;20006;-49
2022/01/22 07:46:08;;;;;;;;;;;20.10;42.40;;;;;;5110312;27;20266;-48
2022/01/22 07:48:34;;;;;;;;;;;20.10;42.40;;;;;;5128944;27;20322;-47
2022/01/22 07:51:02;;;;;;;;;;;20.10;42.40;;;;;;5110473;27;20016;-46
2022/01/22 07:53:29;;;;;;;;;;;20.10;42.40;;;;;;5107642;27;19924;-50
2022/01/22 07:55:56;;;;;;;;;;;20.10;42.40;;;;;;5126835;27;19924;-45
2022/01/22 07:58:22;;;;;;;;;;;20.10;42.40;;;;;;5108722;27;19923;-48
2022/01/22 08:00:49;;;;;;;;;;;20.10;42.40;;;;;;5110887;27;20599;-49
2022/01/22 08:03:16;;;;;;;;;;;20.10;42.30;;;;;;5105676;27;19967;-47
2022/01/22 08:05:44;;;;;;;;;;;20.10;42.40;;;;;;5126705;27;19923;-47
2022/01/22 08:08:12;;;;;;;;;;;20.10;42.40;;;;;;5108756;27;20344;-46
2022/01/22 08:10:39;;;;;;;;;;;20.10;42.40;;;;;;5123608;27;19932;-48
2022/01/22 08:13:05;;;;;;;;;;;20.10;42.40;;;;;;5109017;28;19970;-50
2022/01/22 08:15:32;;;;;;;;;;;20.10;42.30;;;;;;5129897;27;20018;-49
2022/01/22 08:18:00;;;;;;;;;;;20.10;42.30;;;;;;5129880;28;19967;-46
2022/01/22 08:20:27;;;;;;;;;;;20.10;42.40;;;;;;5110844;28;19923;-44
2022/01/22 08:22:54;;;;;;;;;;;20.10;42.30;;;;;;5111354;28;19984;-47
2022/01/22 08:25:22;;;;;;;;;;;20.10;42.30;;;;;;5098371;28;19932;-45
2022/01/22 08:30:29;;;;;;;;;;;20.10;42.30;;;;;;5090225;28;19924;-44
2022/01/22 08:33:08;;;;;;;;;;;20.10;42.30;;;;;;5125945;27;19924;-47
2022/01/22 08:35:53;;;;;;;;;;;20.10;42.30;;;;;;5092598;28;19934;-45
2022/01/22 08:38:20;;;;;;;;;;;20.10;42.30;;;;;;5094829;28;20214;-46
2022/01/22 08:40:48;;;;;;;;;;;20.10;42.30;;;;;;5110002;28;20036;-49
2022/01/22 08:43:15;;;;;;;;;;;20.10;42.30;;;;;;5110529;28;19951;-48
2022/01/22 08:45:41;;;;;;;;;;;20.10;42.30;;;;;;5110408;28;20537;-47
2022/01/22 08:48:11;;;;;;;;;;;20.10;42.30;;;;;;5093984;28;19991;-47
2022/01/22 08:50:37;;;;;;;;;;;20.10;42.30;;;;;;5109326;28;20296;-44
2022/01/22 08:53:04;;;;;;;;;;;20.10;42.30;;;;;;5111360;28;19923;-47
2022/01/22 08:55:31;;;;;;;;;;;20.10;42.30;;;;;;5091914;28;19970;-46
2022/01/22 08:57:59;;;;;;;;;;;20.10;42.30;;;;;;5092727;28;19924;-47
2022/01/22 09:00:26;;;;;;;;;;;20.10;42.30;;;;;;5135689;27;19927;-45
2022/01/22 09:02:53;;;;;;;;;;;20.10;42.30;;;;;;5127430;27;19992;-47
2022/01/22 09:05:20;;;;;;;;;;;20.10;42.40;;;;;;5128923;28;20394;-46
2022/01/22 09:07:47;;;;;;;;;;;20.10;42.30;;;;;;5108732;28;19927;-46
2022/01/22 09:10:14;;;;;;;;;;;20.10;42.30;;;;;;5108783;28;20380;-48
2022/01/22 09:12:40;;;;;;;;;;;20.10;42.30;;;;;;5110133;28;19959;-50
2022/01/22 09:15:09;;;;;;;;;;;20.10;42.40;;;;;;5111106;28;20410;-50
2022/01/22 09:17:36;;;;;;;;;;;20.10;42.40;;;;;;5108344;28;20338;-47
2022/01/22 09:20:09;;;;;;;;;;;20.20;42.40;;;;;;5140938;27;20337;-47
2022/01/22 09:22:35;;;;;;;;;;;20.10;42.40;;;;;;5129978;27;19927;-46
2022/01/22 09:25:02;;;;;;;;;;;20.10;42.30;;;;;;5109978;27;19934;-48
2022/01/22 09:27:29;;;;;;;;;;;20.10;42.30;;;;;;5133070;27;19927;-45
2022/01/22 09:29:56;;;;;;;;;;;20.10;42.40;;;;;;5113972;27;19923;-47
2022/01/22 09:32:24;;;;;;;;;;;20.10;42.30;;;;;;5150074;27;19966;-47
2022/01/22 09:34:51;;;;;;;;;;;20.10;42.40;;;;;;5116167;27;19923;-50
2022/01/22 09:37:18;;;;;;;;;;;20.10;42.40;;;;;;5114500;27;20378;-50
2022/01/22 09:39:46;;;;;;;;;;;20.10;42.30;;;;;;5114636;27;19924;-47
2022/01/22 09:42:13;;;;;;;;;;;20.10;42.30;;;;;;5113610;27;19950;-47
2022/01/22 09:44:41;;;;;;;;;;;20.10;42.90;;;;;;5114257;27;19951;-43
2022/01/22 09:47:08;;;;;;;;;;;20.10;42.30;;;;;;5108675;27;19934;-44
2022/01/22 09:49:36;;;;;;;;;;;20.20;42.40;;;;;;5122601;27;19945;-46
2022/01/22 09:52:02;;;;;;;;;;;20.10;42.30;;;;;;5114247;27;20022;-44
2022/01/22 09:54:29;;;;;;;;;;;20.10;42.30;;;;;;5111475;27;19927;-46
2022/01/22 09:57:02;;;;;;;;;;;20.20;42.50;;;;;;5134254;27;19923;-43
2022/01/22 09:59:30;;;;;;;;;;;20.20;42.40;;;;;;5129584;27;19977;-43
2022/01/22 10:02:06;;;;;;;;;;;20.20;42.50;;;;;;5097767;27;20399;-43
2022/01/22 10:04:38;;;;;;;;;;;20.10;42.40;;;;;;5136488;27;20297;-44
2022/01/22 10:07:05;;;;;;;;;;;20.20;42.50;;;;;;5126013;27;19927;-48
2022/01/22 10:09:35;;;;;;;;;;;20.10;42.50;;;;;;5118231;27;19927;-44
2022/01/22 10:12:09;;;;;;;;;;;20.10;42.50;;;;;;5109701;27;19934;-46
2022/01/22 10:14:35;;;;;;;;;;;20.10;42.50;;;;;;5100867;27;19924;-46
2022/01/22 10:17:02;;;;;;;;;;;20.10;42.60;;;;;;5113209;27;19927;-47
2022/01/22 10:19:29;;;;;;;;;;;20.10;43.10;;;;;;5131632;27;19955;-46
2022/01/22 10:21:58;;;;;;;;;;;20.10;42.50;;;;;;5128546;27;20018;-43
2022/01/22 10:24:27;;;;;;;;;;;20.10;42.50;;;;;;5130267;27;19935;-47
2022/01/22 10:27:18;;;;;;;;;;;20.10;42.50;;;;;;5122235;27;19951;-44
2022/01/22 10:29:47;;;;;;;;;;;20.10;42.50;;;;;;5101911;27;19924;-45
2022/01/22 10:32:17;;;;;;;;;;;20.10;42.40;;;;;;5095779;28;20034;-45
2022/01/22 10:34:44;;;;;;;;;;;20.10;42.40;;;;;;5128256;27;19927;-44
2022/01/22 10:37:13;;;;;;;;;;;20.10;42.40;;;;;;5139375;27;19923;-46
2022/01/22 10:39:39;;;;;;;;;;;20.10;42.40;;;;;;5111856;27;19945;-46
2022/01/22 10:42:18;;;;;;;;;;;20.10;42.40;;;;;;5111797;27;19930;-47
2022/01/22 10:44:48;;;;;;;;;;;20.10;42.40;;;;;;5112724;27;19928;-43
2022/01/22 10:47:18;;;;;;;;;;;20.10;42.40;;;;;;5103089;28;20391;-44
2022/01/22 10:49:45;;;;;;;;;;;20.10;42.40;;;;;;5104325;27;20018;-43
2022/01/22 10:52:14;;;;;;;;;;;20.10;42.30;;;;;;5110173;27;19923;-47
2022/01/22 10:54:40;;;;;;;;;;;20.20;42.40;;;;;;5105184;27;19934;-45
2022/01/22 10:57:11;;;;;;;;;;;20.10;42.30;;;;;;5111025;27;20342;-45
2022/01/22 10:59:38;;;;;;;;;;;20.10;42.30;;;;;;5110505;27;19971;-49
2022/01/22 11:02:06;;;;;;;;;;;20.20;42.40;;;;;;5126290;27;19927;-52
2022/01/22 11:04:40;;;;;;;;;;;20.20;42.40;;;;;;5141922;27;20402;-45
2022/01/22 11:07:07;;;;;;;;;;;20.10;42.30;;;;;;5118300;27;19980;-47
2022/01/22 11:09:35;;;;;;;;;;;20.20;42.40;;;;;;5110970;27;20398;-47
2022/01/22 11:12:03;;;;;;;;;;;20.20;42.40;;;;;;5108220;27;19999;-44
2022/01/22 11:14:30;;;;;;;;;;;20.20;42.40;;;;;;5109329;27;20362;-44
2022/01/22 11:16:56;;;;;;;;;;;20.20;42.30;;;;;;5138669;27;19927;-48
2022/01/22 11:19:30;;;;;;;;;;;20.20;42.40;;;;;;5109497;27;20003;-46
2022/01/22 11:21:57;;;;;;;;;;;20.20;42.40;;;;;;5109035;27;19924;-48
2022/01/22 11:24:24;;;;;;;;;;;20.10;42.90;;;;;;5129477;27;19924;-44
2022/01/22 11:26:53;;;;;;;;;;;20.20;42.40;;;;;;5105236;27;19927;-46
2022/01/22 11:29:21;;;;;;;;;;;20.20;42.40;;;;;;5128086;27;20502;-47
2022/01/22 11:31:48;;;;;;;;;;;20.20;42.30;;;;;;5144892;27;20017;-45
2022/01/22 11:34:15;;;;;;;;;;;20.20;42.40;;;;;;5110049;27;19928;-48
2022/01/22 11:36:44;;;;;;;;;;;20.20;42.40;;;;;;5108674;27;20417;-44
2022/01/22 11:39:14;;;;;;;;;;;20.20;42.40;;;;;;5109989;27;19977;-45
2022/01/22 11:41:48;;;;;;;;;;;20.20;42.40;;;;;;5112853;27;19936;-48
2022/01/22 11:44:19;;;;;;;;;;;20.20;42.40;;;;;;5109456;27;19972;-46
2022/01/22 11:46:52;;;;;;;;;;;20.20;42.30;;;;;;5096425;27;19931;-47
2022/01/22 11:49:21;;;;;;;;;;;20.20;42.40;;;;;;5107832;27;19919;-45
2022/01/22 11:51:49;;;;;;;;;;;20.20;42.50;;;;;;5106236;27;19927;-45
2022/01/22 11:54:16;;;;;;;;;;;20.20;42.40;;;;;;5130508;27;19923;-48
2022/01/22 11:56:43;;;;;;;;;;;20.20;42.40;;;;;;5109067;27;19923;-45
2022/01/22 11:59:22;;;;;;;;;;;20.20;42.40;;;;;;5127880;27;19959;-47
2022/01/22 12:02:03;;;;;;;;;;;20.20;42.40;;;;;;5110010;27;20429;-44
2022/01/22 12:04:45;;;;;;;;;;;20.20;42.40;;;;;;5123407;27;19981;-47
2022/01/22 12:07:13;;;;;;;;;;;20.20;42.50;;;;;;5115283;27;19946;-49
2022/01/22 12:09:50;;;;;;;;;;;20.20;42.50;;;;;;5102266;28;19978;-45
2022/01/22 12:15:15;;;;;;;;;;;20.20;42.50;;;;;;5140405;27;19930;-42
2022/01/22 12:18:00;;;;;;;;;;;20.20;42.50;;;;;;5133412;27;20535;-42
2022/01/22 12:23:46;;;;;;;;;;;20.20;42.50;;;;;;5115790;28;19967;-48
2022/01/22 12:26:14;;;;;;;;;;;20.20;42.60;;;;;;5099291;28;20019;-48
2022/01/22 12:28:41;;;;;;;;;;;20.20;42.60;;;;;;5095762;28;20304;-43
2022/01/22 12:31:10;;;;;;;;;;;20.20;42.60;;;;;;5129459;28;19927;-43
2022/01/22 12:33:54;;;;;;;;;;;20.20;42.60;;;;;;5125059;28;19928;-45
2022/01/22 12:36:25;;;;;;;;;;;20.20;42.60;;;;;;5100574;28;19928;-47
2022/01/22 12:39:04;;;;;;;;;;;20.20;42.60;;;;;;5130749;28;19928;-46
2022/01/22 12:41:34;;;;;;;;;;;20.20;42.70;;;;;;5146587;27;19983;-47
2022/01/22 12:44:07;;;;;;;;;;;20.20;42.70;;;;;;5117286;28;19991;-43
2022/01/22 12:46:36;;;;;;;;;;;20.20;42.70;;;;;;5148574;27;19998;-43
2022/01/22 12:49:03;;;;;;;;;;;20.20;42.70;;;;;;5136968;28;19919;-46
2022/01/22 12:51:30;;;;;;;;;;;20.20;42.70;;;;;;5114236;28;19974;-48
2022/01/22 12:53:57;;;;;;;;;;;20.20;42.80;;;;;;5114873;28;19927;-45
2022/01/22 12:56:51;;;;;;;;;;;20.20;42.90;;;;;;5115722;27;20443;-45
2022/01/22 12:59:19;;;;;;;;;;;20.20;42.80;;;;;;5130948;27;20014;-48
2022/01/22 13:01:51;;;;;;;;;;;20.20;42.90;;;;;;5116777;27;19934;-46
2022/01/22 13:04:21;;;;;;;;;;;20.30;43.00;;;;;;5117140;27;19928;-43
2022/01/22 13:06:50;;;;;;;;;;;20.20;42.90;;;;;;5147279;27;19923;-48
2022/01/22 13:09:17;;;;;;;;;;;20.20;42.90;;;;;;5117924;27;19946;-45
2022/01/22 13:11:49;;;;;;;;;;;20.20;42.90;;;;;;5114813;27;19945;-45
2022/01/22 13:14:16;;;;;;;;;;;20.30;43.00;;;;;;5140442;27;20307;-50
2022/01/22 13:16:49;;;;;;;;;;;20.30;43.00;;;;;;5120833;27;20353;-44
2022/01/22 13:19:16;;;;;;;;;;;20.30;43.00;;;;;;5115506;27;19977;-49
2022/01/22 13:21:48;;;;;;;;;;;20.30;43.00;;;;;;5149260;27;19931;-47
2022/01/22 13:24:15;;;;;;;;;;;20.20;42.90;;;;;;5108314;28;20023;-43
2022/01/22 13:26:47;;;;;;;;;;;20.20;42.90;;;;;;5110693;27;19924;-45
2022/01/22 13:29:15;;;;;;;;;;;20.20;42.90;;;;;;5111198;27;19939;-50
2022/01/22 13:31:41;;;;;;;;;;;20.30;43.00;;;;;;5138700;27;19947;-44
2022/01/22 13:34:25;;;;;;;;;;;20.30;43.00;;;;;;5156172;27;19923;-46
2022/01/22 13:37:18;;;;;;;;;;;20.30;43.00;;;;;;5114087;27;19924;-44
2022/01/22 13:40:07;;;;;;;;;;;20.30;43.00;;;;;;5106651;27;20002;-43
2022/01/22 13:47:39;;;;;;;;;;;20.30;43.00;;;;;;5128150;27;20437;-43
2022/01/22 13:48:09;;;;;;;;;;;20.30;43.10;;;;;;5125481;27;20399;-46
2022/01/22 13:50:37;;;;;;;;;;;20.30;43.10;;;;;;5137164;27;19939;-44
2022/01/22 13:53:03;;;;;;;;;;;20.30;43.20;;;;;;5130437;27;20259;-43
2022/01/22 13:55:30;;;;;;;;;;;20.30;43.20;;;;;;5118173;27;19969;-43
2022/01/22 13:57:57;;;;;;;;;;;20.30;43.30;;;;;;5116654;27;19976;-44
2022/01/22 14:00:24;;;;;;;;;;;20.30;43.40;;;;;;5117341;27;19966;-44
2022/01/22 14:03:08;;;;;;;;;;;20.30;43.50;;;;;;5118156;27;19953;-43
2022/01/22 14:05:36;;;;;;;;;;;20.30;43.60;;;;;;5111017;27;20281;-43
2022/01/22 14:08:05;;;;;;;;;;;20.30;43.60;;;;;;5115743;28;19966;-46
2022/01/22 14:10:32;;;;;;;;;;;20.30;43.70;;;;;;5116182;27;20026;-45
2022/01/22 14:13:05;;;;;;;;;;;20.30;43.70;;;;;;5116182;27;19938;-49
2022/01/22 14:15:32;;;;;;;;;;;20.30;43.80;;;;;;5133595;27;20446;-46
2022/01/22 14:18:09;;;;;;;;;;;20.30;43.80;;;;;;5115405;27;19935;-49
2022/01/22 14:20:37;;;;;;;;;;;20.30;43.80;;;;;;5114107;27;20536;-44
2022/01/22 14:23:05;;;;;;;;;;;20.30;43.80;;;;;;5116102;27;19927;-45
2022/01/22 14:25:32;;;;;;;;;;;20.30;43.80;;;;;;5134083;27;19923;-46
2022/01/22 14:28:00;;;;;;;;;;;20.30;43.80;;;;;;5112391;27;20028;-47
2022/01/22 14:30:43;;;;;;;;;;;20.30;43.80;;;;;;5117556;27;20006;-44
2022/01/22 14:33:10;;;;;;;;;;;20.30;43.80;;;;;;5114233;27;19927;-50
2022/01/22 14:35:39;;;;;;;;;;;20.30;43.80;;;;;;5114861;27;19939;-48
2022/01/22 14:38:33;;;;;;;;;;;20.30;43.80;;;;;;5133968;27;19927;-44
2022/01/22 14:44:15;;;;;;;;;;;20.30;43.80;;;;;;5115990;27;19934;-44
2022/01/22 14:46:47;;;;;;;;;;;20.30;43.80;;;;;;5115389;27;20277;-45
2022/01/22 14:49:13;;;;;;;;;;;20.30;43.80;;;;;;5135532;27;19934;-46
2022/01/22 14:51:42;;;;;;;;;;;20.30;43.80;;;;;;5140189;27;19932;-44
2022/01/22 14:54:08;;;;;;;;;;;20.30;43.80;;;;;;5111149;27;19930;-46
2022/01/22 14:56:35;;;;;;;;;;;20.30;43.80;;;;;;5097823;27;19924;-47
2022/01/22 14:59:02;;;;;;;;;;;20.30;43.80;;;;;;5113909;27;19920;-46
2022/01/22 15:01:29;;;;;;;;;;;20.30;43.80;;;;;;5111494;27;20416;-47
2022/01/22 15:03:56;;;;;;;;;;;20.30;43.80;;;;;;5131614;27;20357;-44
2022/01/22 15:06:23;;;;;;;;;;;20.30;43.80;;;;;;5115270;27;19923;-45
2022/01/22 15:08:51;;;;;;;;;;;20.30;43.80;;;;;;5115821;27;19949;-45
2022/01/22 15:11:17;;;;;;;;;;;20.30;43.80;;;;;;5134720;27;19934;-45
2022/01/22 15:13:44;;;;;;;;;;;20.30;43.80;;;;;;5108563;27;19924;-46
2022/01/22 15:16:16;;;;;;;;;;;20.30;43.80;;;;;;5108701;27;19924;-50
2022/01/22 15:18:53;;;;;;;;;;;20.30;43.80;;;;;;5113795;27;19923;-48
2022/01/22 15:21:20;;;;;;;;;;;20.30;43.80;;;;;;5114608;27;20264;-49
2022/01/22 15:23:47;;;;;;;;;;;20.30;43.80;;;;;;5111667;27;20443;-48
2022/01/22 15:26:15;;;;;;;;;;;20.30;43.80;;;;;;5107439;27;19928;-45
2022/01/22 15:28:46;;;;;;;;;;;20.30;43.90;;;;;;5109789;27;20318;-43
2022/01/22 15:31:27;;;;;;;;;;;20.30;43.80;;;;;;5110222;27;20488;-47
2022/01/22 15:34:07;;;;;;;;;;;20.30;43.80;;;;;;5109996;27;19982;-48
2022/01/22 15:36:33;;;;;;;;;;;20.30;43.80;;;;;;5131353;27;19924;-46
2022/01/22 15:39:04;;;;;;;;;;;20.30;43.80;;;;;;5111515;27;19924;-45
2022/01/22 15:41:33;;;;;;;;;;;20.30;43.80;;;;;;5141919;27;19991;-45
2022/01/22 15:44:01;;;;;;;;;;;20.30;44.00;;;;;;5115168;27;19923;-48
2022/01/22 15:46:28;;;;;;;;;;;20.30;43.80;;;;;;5133396;27;19955;-45
2022/01/22 15:48:55;;;;;;;;;;;20.30;43.80;;;;;;5115340;27;19930;-47